sensor_id;sensor_type;location;lat;lon;timestamp;P1;durP1;ratioP1;P2;durP2;ratioP2
10045;SDS011;5063;50.878;4.742;2023-10-19T00:01:15;1.57;;;1.20;;
10045;SDS011;5063;50.878;4.742;2023-10-19T00:03:42;2.73;;;1.20;;
10045;SDS011;5063;50.878;4.742;2023-10-19T00:06:09;2.30;;;0.90;;
10045;SDS011;5063;50.878;4.742;2023-10-19T00:08:37;0.97;;;0.83;;
10045;SDS011;5063;50.878;4.742;2023-10-19T00:11:09;3.90;;;1.27;;
10045;SDS011;5063;50.878;4.742;2023-10-19T00:13:37;2.00;;;1.00;;
10045;SDS011;5063;50.878;4.742;2023-10-19T00:16:04;4.13;;;1.57;;
10045;SDS011;5063;50.878;4.742;2023-10-19T00:18:46;2.50;;;1.07;;
10045;SDS011;5063;50.878;4.742;2023-10-19T00:21:13;2.07;;;0.83;;
10045;SDS011;5063;50.878;4.742;2023-10-19T00:23:42;2.03;;;0.87;;
10045;SDS011;5063;50.878;4.742;2023-10-19T00:26:07;2.13;;;0.87;;
10045;SDS011;5063;50.878;4.742;2023-10-19T00:28:34;3.80;;;0.90;;
10045;SDS011;5063;50.878;4.742;2023-10-19T00:31:04;4.77;;;1.23;;
10045;SDS011;5063;50.878;4.742;2023-10-19T00:33:37;3.73;;;1.00;;
10045;SDS011;5063;50.878;4.742;2023-10-19T00:36:09;3.43;;;0.90;;
10045;SDS011;5063;50.878;4.742;2023-10-19T00:38:38;4.10;;;1.37;;
10045;SDS011;5063;50.878;4.742;2023-10-19T00:41:06;1.07;;;0.70;;
10045;SDS011;5063;50.878;4.742;2023-10-19T00:43:42;1.23;;;0.60;;
10045;SDS011;5063;50.878;4.742;2023-10-19T00:46:08;4.43;;;1.10;;
10045;SDS011;5063;50.878;4.742;2023-10-19T00:48:56;1.37;;;0.87;;
10045;SDS011;5063;50.878;4.742;2023-10-19T00:51:27;3.70;;;0.90;;
10045;SDS011;5063;50.878;4.742;2023-10-19T00:57:05;2.13;;;0.87;;
10045;SDS011;5063;50.878;4.742;2023-10-19T00:59:45;4.97;;;1.30;;
10045;SDS011;5063;50.878;4.742;2023-10-19T01:02:34;5.97;;;0.90;;
10045;SDS011;5063;50.878;4.742;2023-10-19T01:04:59;2.07;;;0.90;;
10045;SDS011;5063;50.878;4.742;2023-10-19T01:07:30;2.67;;;1.10;;
10045;SDS011;5063;50.878;4.742;2023-10-19T01:10:00;1.83;;;0.90;;
10045;SDS011;5063;50.878;4.742;2023-10-19T01:12:30;2.17;;;0.90;;
10045;SDS011;5063;50.878;4.742;2023-10-19T01:15:09;3.70;;;0.83;;
10045;SDS011;5063;50.878;4.742;2023-10-19T01:17:42;2.07;;;0.90;;
10045;SDS011;5063;50.878;4.742;2023-10-19T01:20:22;4.10;;;0.90;;
10045;SDS011;5063;50.878;4.742;2023-10-19T01:22:59;4.67;;;1.07;;
10045;SDS011;5063;50.878;4.742;2023-10-19T01:25:33;2.03;;;1.03;;
10045;SDS011;5063;50.878;4.742;2023-10-19T01:28:15;5.33;;;1.13;;
10045;SDS011;5063;50.878;4.742;2023-10-19T01:30:42;2.23;;;0.97;;
10045;SDS011;5063;50.878;4.742;2023-10-19T01:33:16;3.10;;;0.93;;
10045;SDS011;5063;50.878;4.742;2023-10-19T01:35:43;2.97;;;0.87;;
10045;SDS011;5063;50.878;4.742;2023-10-19T01:38:28;2.70;;;1.30;;
10045;SDS011;5063;50.878;4.742;2023-10-19T01:40:58;2.77;;;1.30;;
10045;SDS011;5063;50.878;4.742;2023-10-19T01:43:25;3.73;;;1.27;;
10045;SDS011;5063;50.878;4.742;2023-10-19T01:45:56;1.83;;;1.07;;
10045;SDS011;5063;50.878;4.742;2023-10-19T01:48:22;3.00;;;1.43;;
10045;SDS011;5063;50.878;4.742;2023-10-19T01:50:53;1.63;;;1.17;;
10045;SDS011;5063;50.878;4.742;2023-10-19T01:53:19;3.00;;;1.27;;
10045;SDS011;5063;50.878;4.742;2023-10-19T01:55:50;3.60;;;1.20;;
10045;SDS011;5063;50.878;4.742;2023-10-19T01:58:22;3.90;;;1.07;;
10045;SDS011;5063;50.878;4.742;2023-10-19T02:00:50;4.73;;;1.20;;
10045;SDS011;5063;50.878;4.742;2023-10-19T02:03:21;2.53;;;1.30;;
10045;SDS011;5063;50.878;4.742;2023-10-19T02:05:56;6.87;;;1.30;;
10045;SDS011;5063;50.878;4.742;2023-10-19T02:08:31;5.30;;;1.30;;
10045;SDS011;5063;50.878;4.742;2023-10-19T02:10:56;3.83;;;1.30;;
10045;SDS011;5063;50.878;4.742;2023-10-19T02:13:22;2.23;;;1.40;;
10045;SDS011;5063;50.878;4.742;2023-10-19T02:15:48;3.63;;;1.30;;
10045;SDS011;5063;50.878;4.742;2023-10-19T02:18:16;8.37;;;1.47;;
10045;SDS011;5063;50.878;4.742;2023-10-19T02:20:42;8.53;;;1.70;;
10045;SDS011;5063;50.878;4.742;2023-10-19T02:23:13;3.63;;;1.37;;
10045;SDS011;5063;50.878;4.742;2023-10-19T02:25:39;2.70;;;1.13;;
10045;SDS011;5063;50.878;4.742;2023-10-19T02:28:05;2.83;;;1.17;;
10045;SDS011;5063;50.878;4.742;2023-10-19T02:30:35;3.67;;;1.73;;
10045;SDS011;5063;50.878;4.742;2023-10-19T02:33:01;3.90;;;1.23;;
10045;SDS011;5063;50.878;4.742;2023-10-19T02:35:28;7.47;;;1.70;;
10045;SDS011;5063;50.878;4.742;2023-10-19T02:37:54;4.50;;;1.40;;
10045;SDS011;5063;50.878;4.742;2023-10-19T02:40:20;7.07;;;1.40;;
10045;SDS011;5063;50.878;4.742;2023-10-19T02:42:49;3.30;;;1.50;;
10045;SDS011;5063;50.878;4.742;2023-10-19T02:45:18;4.93;;;1.70;;
10045;SDS011;5063;50.878;4.742;2023-10-19T02:47:45;9.17;;;1.60;;
10045;SDS011;5063;50.878;4.742;2023-10-19T02:50:11;9.27;;;1.70;;
10045;SDS011;5063;50.878;4.742;2023-10-19T02:52:47;6.63;;;1.50;;
10045;SDS011;5063;50.878;4.742;2023-10-19T02:55:14;5.40;;;1.53;;
10045;SDS011;5063;50.878;4.742;2023-10-19T02:57:43;2.70;;;1.43;;
10045;SDS011;5063;50.878;4.742;2023-10-19T03:00:12;4.20;;;1.47;;
10045;SDS011;5063;50.878;4.742;2023-10-19T03:02:40;3.70;;;1.37;;
10045;SDS011;5063;50.878;4.742;2023-10-19T03:05:06;3.30;;;1.63;;
10045;SDS011;5063;50.878;4.742;2023-10-19T03:07:39;3.80;;;1.43;;
10045;SDS011;5063;50.878;4.742;2023-10-19T03:10:06;5.00;;;1.40;;
10045;SDS011;5063;50.878;4.742;2023-10-19T03:12:32;6.57;;;1.60;;
10045;SDS011;5063;50.878;4.742;2023-10-19T03:14:58;7.90;;;1.80;;
10045;SDS011;5063;50.878;4.742;2023-10-19T03:17:25;5.70;;;1.80;;
10045;SDS011;5063;50.878;4.742;2023-10-19T03:19:53;5.97;;;1.87;;
10045;SDS011;5063;50.878;4.742;2023-10-19T03:22:20;7.37;;;1.50;;
10045;SDS011;5063;50.878;4.742;2023-10-19T03:24:46;7.03;;;1.77;;
10045;SDS011;5063;50.878;4.742;2023-10-19T03:27:13;3.47;;;1.63;;
10045;SDS011;5063;50.878;4.742;2023-10-19T03:29:49;9.17;;;1.90;;
10045;SDS011;5063;50.878;4.742;2023-10-19T03:32:20;10.27;;;1.97;;
10045;SDS011;5063;50.878;4.742;2023-10-19T03:34:53;5.13;;;1.40;;
10045;SDS011;5063;50.878;4.742;2023-10-19T03:37:25;2.50;;;1.57;;
10045;SDS011;5063;50.878;4.742;2023-10-19T03:39:54;3.20;;;1.40;;
10045;SDS011;5063;50.878;4.742;2023-10-19T03:42:23;7.43;;;1.77;;
10045;SDS011;5063;50.878;4.742;2023-10-19T03:44:57;5.40;;;1.87;;
10045;SDS011;5063;50.878;4.742;2023-10-19T03:47:25;6.40;;;2.27;;
10045;SDS011;5063;50.878;4.742;2023-10-19T03:50:03;4.60;;;1.93;;
10045;SDS011;5063;50.878;4.742;2023-10-19T03:52:32;8.63;;;1.90;;
10045;SDS011;5063;50.878;4.742;2023-10-19T03:55:03;6.33;;;1.97;;
10045;SDS011;5063;50.878;4.742;2023-10-19T03:57:36;5.43;;;1.90;;
10045;SDS011;5063;50.878;4.742;2023-10-19T04:00:06;8.60;;;2.07;;
10045;SDS011;5063;50.878;4.742;2023-10-19T04:02:40;3.43;;;1.73;;
10045;SDS011;5063;50.878;4.742;2023-10-19T04:05:07;7.70;;;2.10;;
10045;SDS011;5063;50.878;4.742;2023-10-19T04:07:35;8.97;;;2.03;;
10045;SDS011;5063;50.878;4.742;2023-10-19T04:10:01;8.90;;;2.43;;
10045;SDS011;5063;50.878;4.742;2023-10-19T04:12:29;6.90;;;1.83;;
10045;SDS011;5063;50.878;4.742;2023-10-19T04:14:56;11.63;;;1.97;;
10045;SDS011;5063;50.878;4.742;2023-10-19T04:17:22;6.47;;;1.70;;
10045;SDS011;5063;50.878;4.742;2023-10-19T04:19:48;5.33;;;1.70;;
10045;SDS011;5063;50.878;4.742;2023-10-19T04:22:16;4.93;;;1.80;;
10045;SDS011;5063;50.878;4.742;2023-10-19T04:24:48;6.20;;;1.80;;
10045;SDS011;5063;50.878;4.742;2023-10-19T04:27:15;8.33;;;1.70;;
10045;SDS011;5063;50.878;4.742;2023-10-19T04:29:40;4.57;;;1.90;;
10045;SDS011;5063;50.878;4.742;2023-10-19T04:32:08;7.73;;;2.13;;
10045;SDS011;5063;50.878;4.742;2023-10-19T04:34:35;7.80;;;1.70;;
10045;SDS011;5063;50.878;4.742;2023-10-19T04:37:04;7.07;;;2.13;;
10045;SDS011;5063;50.878;4.742;2023-10-19T04:39:30;5.43;;;1.70;;
10045;SDS011;5063;50.878;4.742;2023-10-19T04:41:55;8.30;;;1.70;;
10045;SDS011;5063;50.878;4.742;2023-10-19T04:44:21;9.80;;;2.40;;
10045;SDS011;5063;50.878;4.742;2023-10-19T04:46:48;8.33;;;2.13;;
10045;SDS011;5063;50.878;4.742;2023-10-19T04:49:14;4.10;;;1.40;;
10045;SDS011;5063;50.878;4.742;2023-10-19T04:51:41;2.97;;;1.47;;
10045;SDS011;5063;50.878;4.742;2023-10-19T04:54:08;8.00;;;2.30;;
10045;SDS011;5063;50.878;4.742;2023-10-19T04:56:34;5.47;;;1.87;;
10045;SDS011;5063;50.878;4.742;2023-10-19T04:59:03;5.87;;;1.97;;
10045;SDS011;5063;50.878;4.742;2023-10-19T05:01:29;9.37;;;2.30;;
10045;SDS011;5063;50.878;4.742;2023-10-19T05:03:58;5.30;;;2.13;;
10045;SDS011;5063;50.878;4.742;2023-10-19T05:06:24;4.83;;;1.83;;
10045;SDS011;5063;50.878;4.742;2023-10-19T05:08:50;8.13;;;2.30;;
10045;SDS011;5063;50.878;4.742;2023-10-19T05:11:17;5.03;;;2.20;;
10045;SDS011;5063;50.878;4.742;2023-10-19T05:13:43;6.67;;;2.00;;
10045;SDS011;5063;50.878;4.742;2023-10-19T05:16:08;8.23;;;2.30;;
10045;SDS011;5063;50.878;4.742;2023-10-19T05:18:34;6.13;;;1.90;;
10045;SDS011;5063;50.878;4.742;2023-10-19T05:21:00;7.13;;;2.37;;
10045;SDS011;5063;50.878;4.742;2023-10-19T05:23:26;6.03;;;2.07;;
10045;SDS011;5063;50.878;4.742;2023-10-19T05:25:53;8.50;;;2.63;;
10045;SDS011;5063;50.878;4.742;2023-10-19T05:28:24;9.50;;;2.37;;
10045;SDS011;5063;50.878;4.742;2023-10-19T05:30:50;10.13;;;2.10;;
10045;SDS011;5063;50.878;4.742;2023-10-19T05:33:16;5.30;;;2.03;;
10045;SDS011;5063;50.878;4.742;2023-10-19T05:35:45;7.50;;;2.13;;
10045;SDS011;5063;50.878;4.742;2023-10-19T05:38:12;4.23;;;1.73;;
10045;SDS011;5063;50.878;4.742;2023-10-19T05:40:38;7.77;;;2.37;;
10045;SDS011;5063;50.878;4.742;2023-10-19T05:43:04;7.20;;;2.20;;
10045;SDS011;5063;50.878;4.742;2023-10-19T05:45:30;5.40;;;2.27;;
10045;SDS011;5063;50.878;4.742;2023-10-19T05:47:57;6.83;;;2.27;;
10045;SDS011;5063;50.878;4.742;2023-10-19T05:50:23;6.83;;;2.70;;
10045;SDS011;5063;50.878;4.742;2023-10-19T05:52:49;7.50;;;1.97;;
10045;SDS011;5063;50.878;4.742;2023-10-19T05:55:17;5.03;;;1.87;;
10045;SDS011;5063;50.878;4.742;2023-10-19T05:57:43;5.30;;;2.30;;
10045;SDS011;5063;50.878;4.742;2023-10-19T06:00:09;5.03;;;2.23;;
10045;SDS011;5063;50.878;4.742;2023-10-19T06:02:44;3.17;;;1.97;;
10045;SDS011;5063;50.878;4.742;2023-10-19T06:05:14;7.53;;;2.30;;
10045;SDS011;5063;50.878;4.742;2023-10-19T06:07:45;7.57;;;1.93;;
10045;SDS011;5063;50.878;4.742;2023-10-19T06:10:13;9.80;;;1.90;;
10045;SDS011;5063;50.878;4.742;2023-10-19T06:12:51;8.03;;;1.80;;
10045;SDS011;5063;50.878;4.742;2023-10-19T06:15:20;4.57;;;2.00;;
10045;SDS011;5063;50.878;4.742;2023-10-19T06:17:49;4.50;;;1.93;;
10045;SDS011;5063;50.878;4.742;2023-10-19T06:20:15;6.70;;;1.87;;
10045;SDS011;5063;50.878;4.742;2023-10-19T06:22:51;7.33;;;2.40;;
10045;SDS011;5063;50.878;4.742;2023-10-19T06:25:22;6.70;;;1.93;;
10045;SDS011;5063;50.878;4.742;2023-10-19T06:27:49;4.30;;;1.90;;
10045;SDS011;5063;50.878;4.742;2023-10-19T06:30:17;10.37;;;2.00;;
10045;SDS011;5063;50.878;4.742;2023-10-19T06:32:48;7.20;;;2.20;;
10045;SDS011;5063;50.878;4.742;2023-10-19T06:35:18;3.93;;;1.67;;
10045;SDS011;5063;50.878;4.742;2023-10-19T06:37:45;8.47;;;2.03;;
10045;SDS011;5063;50.878;4.742;2023-10-19T06:40:11;6.97;;;2.43;;
10045;SDS011;5063;50.878;4.742;2023-10-19T06:42:40;3.20;;;1.80;;
10045;SDS011;5063;50.878;4.742;2023-10-19T06:45:07;8.00;;;2.30;;
10045;SDS011;5063;50.878;4.742;2023-10-19T06:47:33;7.40;;;2.17;;
10045;SDS011;5063;50.878;4.742;2023-10-19T06:50:05;5.77;;;2.00;;
10045;SDS011;5063;50.878;4.742;2023-10-19T06:52:36;6.07;;;2.43;;
10045;SDS011;5063;50.878;4.742;2023-10-19T06:55:05;5.40;;;1.90;;
10045;SDS011;5063;50.878;4.742;2023-10-19T06:57:54;8.83;;;2.03;;
10045;SDS011;5063;50.878;4.742;2023-10-19T07:00:24;8.00;;;2.17;;
10045;SDS011;5063;50.878;4.742;2023-10-19T07:02:52;7.03;;;2.13;;
10045;SDS011;5063;50.878;4.742;2023-10-19T07:05:20;7.00;;;2.10;;
10045;SDS011;5063;50.878;4.742;2023-10-19T07:07:52;7.20;;;1.80;;
10045;SDS011;5063;50.878;4.742;2023-10-19T07:10:20;7.57;;;2.03;;
10045;SDS011;5063;50.878;4.742;2023-10-19T07:12:48;5.93;;;2.07;;
10045;SDS011;5063;50.878;4.742;2023-10-19T07:15:16;7.60;;;2.07;;
10045;SDS011;5063;50.878;4.742;2023-10-19T07:17:48;11.00;;;2.30;;
10045;SDS011;5063;50.878;4.742;2023-10-19T07:20:17;9.10;;;2.37;;
10045;SDS011;5063;50.878;4.742;2023-10-19T07:23:01;6.47;;;2.07;;
10045;SDS011;5063;50.878;4.742;2023-10-19T07:25:35;5.73;;;2.40;;
10045;SDS011;5063;50.878;4.742;2023-10-19T07:28:24;4.03;;;1.90;;
10045;SDS011;5063;50.878;4.742;2023-10-19T07:30:51;13.57;;;2.60;;
10045;SDS011;5063;50.878;4.742;2023-10-19T07:33:17;7.73;;;2.57;;
10045;SDS011;5063;50.878;4.742;2023-10-19T07:35:45;7.67;;;1.90;;
10045;SDS011;5063;50.878;4.742;2023-10-19T07:38:15;3.83;;;1.83;;
10045;SDS011;5063;50.878;4.742;2023-10-19T07:40:42;8.43;;;2.50;;
10045;SDS011;5063;50.878;4.742;2023-10-19T07:43:09;8.30;;;2.50;;
10045;SDS011;5063;50.878;4.742;2023-10-19T07:45:35;8.33;;;2.23;;
10045;SDS011;5063;50.878;4.742;2023-10-19T07:48:02;6.73;;;1.93;;
10045;SDS011;5063;50.878;4.742;2023-10-19T07:50:34;15.93;;;2.73;;
10045;SDS011;5063;50.878;4.742;2023-10-19T07:53:01;7.77;;;2.63;;
10045;SDS011;5063;50.878;4.742;2023-10-19T07:55:28;6.70;;;2.30;;
10045;SDS011;5063;50.878;4.742;2023-10-19T07:57:54;9.40;;;2.50;;
10045;SDS011;5063;50.878;4.742;2023-10-19T08:00:21;6.93;;;2.23;;
10045;SDS011;5063;50.878;4.742;2023-10-19T08:02:48;9.00;;;2.53;;
10045;SDS011;5063;50.878;4.742;2023-10-19T08:05:14;8.77;;;2.20;;
10045;SDS011;5063;50.878;4.742;2023-10-19T08:07:43;9.00;;;2.20;;
10045;SDS011;5063;50.878;4.742;2023-10-19T08:10:12;6.87;;;2.57;;
10045;SDS011;5063;50.878;4.742;2023-10-19T08:12:40;11.70;;;2.80;;
10045;SDS011;5063;50.878;4.742;2023-10-19T08:15:07;8.43;;;2.33;;
10045;SDS011;5063;50.878;4.742;2023-10-19T08:17:36;13.07;;;2.77;;
10045;SDS011;5063;50.878;4.742;2023-10-19T08:20:04;8.97;;;2.97;;
10045;SDS011;5063;50.878;4.742;2023-10-19T08:22:34;6.93;;;2.60;;
10045;SDS011;5063;50.878;4.742;2023-10-19T08:25:01;6.53;;;2.20;;
10045;SDS011;5063;50.878;4.742;2023-10-19T08:27:40;8.50;;;2.20;;
10045;SDS011;5063;50.878;4.742;2023-10-19T08:30:09;11.33;;;2.27;;
10045;SDS011;5063;50.878;4.742;2023-10-19T08:32:36;7.73;;;2.00;;
10045;SDS011;5063;50.878;4.742;2023-10-19T08:35:02;7.93;;;2.30;;
10045;SDS011;5063;50.878;4.742;2023-10-19T08:37:29;6.97;;;2.77;;
10045;SDS011;5063;50.878;4.742;2023-10-19T08:39:55;7.13;;;2.03;;
10045;SDS011;5063;50.878;4.742;2023-10-19T08:42:20;8.87;;;2.50;;
10045;SDS011;5063;50.878;4.742;2023-10-19T08:44:46;6.30;;;1.97;;
10045;SDS011;5063;50.878;4.742;2023-10-19T08:47:12;7.60;;;2.17;;
10045;SDS011;5063;50.878;4.742;2023-10-19T08:49:38;8.90;;;2.57;;
10045;SDS011;5063;50.878;4.742;2023-10-19T08:52:04;3.87;;;1.80;;
10045;SDS011;5063;50.878;4.742;2023-10-19T08:54:32;7.57;;;2.10;;
10045;SDS011;5063;50.878;4.742;2023-10-19T08:56:59;11.23;;;2.80;;
10045;SDS011;5063;50.878;4.742;2023-10-19T08:59:25;10.47;;;2.63;;
10045;SDS011;5063;50.878;4.742;2023-10-19T09:01:59;8.50;;;2.67;;
10045;SDS011;5063;50.878;4.742;2023-10-19T09:04:26;3.87;;;2.07;;
10045;SDS011;5063;50.878;4.742;2023-10-19T09:06:53;8.53;;;2.33;;
10045;SDS011;5063;50.878;4.742;2023-10-19T09:09:20;8.90;;;2.37;;
10045;SDS011;5063;50.878;4.742;2023-10-19T09:11:46;6.47;;;2.57;;
10045;SDS011;5063;50.878;4.742;2023-10-19T09:14:13;7.83;;;2.53;;
10045;SDS011;5063;50.878;4.742;2023-10-19T09:16:55;10.00;;;3.50;;
10045;SDS011;5063;50.878;4.742;2023-10-19T09:22:14;8.13;;;2.40;;
10045;SDS011;5063;50.878;4.742;2023-10-19T09:24:49;9.40;;;2.53;;
10045;SDS011;5063;50.878;4.742;2023-10-19T09:27:19;7.63;;;2.07;;
10045;SDS011;5063;50.878;4.742;2023-10-19T09:29:46;5.97;;;2.23;;
10045;SDS011;5063;50.878;4.742;2023-10-19T09:32:13;10.87;;;3.10;;
10045;SDS011;5063;50.878;4.742;2023-10-19T09:34:42;8.00;;;2.27;;
10045;SDS011;5063;50.878;4.742;2023-10-19T09:37:10;7.90;;;2.30;;
10045;SDS011;5063;50.878;4.742;2023-10-19T09:39:36;10.60;;;2.97;;
10045;SDS011;5063;50.878;4.742;2023-10-19T09:42:06;5.63;;;2.60;;
10045;SDS011;5063;50.878;4.742;2023-10-19T09:44:45;7.03;;;2.87;;
10045;SDS011;5063;50.878;4.742;2023-10-19T09:47:34;8.73;;;2.53;;
10045;SDS011;5063;50.878;4.742;2023-10-19T09:50:04;13.43;;;3.13;;
10045;SDS011;5063;50.878;4.742;2023-10-19T09:52:31;10.27;;;2.47;;
10045;SDS011;5063;50.878;4.742;2023-10-19T10:00:37;10.70;;;2.70;;
10045;SDS011;5063;50.878;4.742;2023-10-19T10:03:03;5.50;;;2.10;;
10045;SDS011;5063;50.878;4.742;2023-10-19T10:10:43;5.83;;;2.30;;
10045;SDS011;5063;50.878;4.742;2023-10-19T10:13:52;8.07;;;2.43;;
10045;SDS011;5063;50.878;4.742;2023-10-19T10:15:59;9.43;;;2.43;;
10045;SDS011;5063;50.878;4.742;2023-10-19T10:18:31;7.40;;;2.50;;
10045;SDS011;5063;50.878;4.742;2023-10-19T10:21:14;11.32;;;2.72;;
10045;SDS011;5063;50.878;4.742;2023-10-19T10:26:28;7.68;;;2.45;;
10045;SDS011;5063;50.878;4.742;2023-10-19T10:29:15;9.98;;;2.97;;
10045;SDS011;5063;50.878;4.742;2023-10-19T10:31:47;6.17;;;2.23;;
10045;SDS011;5063;50.878;4.742;2023-10-19T10:36:59;7.13;;;2.30;;
10045;SDS011;5063;50.878;4.742;2023-10-19T10:39:36;9.00;;;2.20;;
10045;SDS011;5063;50.878;4.742;2023-10-19T10:42:04;9.63;;;2.72;;
10045;SDS011;5063;50.878;4.742;2023-10-19T10:44:47;7.30;;;2.53;;
10045;SDS011;5063;50.878;4.742;2023-10-19T10:49:58;8.70;;;2.25;;
10045;SDS011;5063;50.878;4.742;2023-10-19T10:52:29;7.28;;;2.45;;
10045;SDS011;5063;50.878;4.742;2023-10-19T10:55:05;8.40;;;2.33;;
10045;SDS011;5063;50.878;4.742;2023-10-19T10:57:42;5.90;;;1.98;;
10045;SDS011;5063;50.878;4.742;2023-10-19T11:02:41;7.47;;;2.58;;
10045;SDS011;5063;50.878;4.742;2023-10-19T11:05:11;11.50;;;2.88;;
10045;SDS011;5063;50.878;4.742;2023-10-19T11:10:31;9.97;;;2.50;;
10045;SDS011;5063;50.878;4.742;2023-10-19T11:13:16;7.93;;;3.22;;
10045;SDS011;5063;50.878;4.742;2023-10-19T11:15:54;9.23;;;2.47;;
10045;SDS011;5063;50.878;4.742;2023-10-19T11:18:28;5.90;;;2.00;;
10045;SDS011;5063;50.878;4.742;2023-10-19T11:20:54;6.57;;;2.13;;
10045;SDS011;5063;50.878;4.742;2023-10-19T11:23:23;9.37;;;2.83;;
10045;SDS011;5063;50.878;4.742;2023-10-19T11:26:02;9.13;;;2.43;;
10045;SDS011;5063;50.878;4.742;2023-10-19T11:28:30;9.53;;;2.30;;
10045;SDS011;5063;50.878;4.742;2023-10-19T11:34:02;7.43;;;2.17;;
10045;SDS011;5063;50.878;4.742;2023-10-19T11:36:29;8.20;;;2.47;;
10045;SDS011;5063;50.878;4.742;2023-10-19T11:38:55;5.73;;;1.97;;
10045;SDS011;5063;50.878;4.742;2023-10-19T11:41:21;8.63;;;2.80;;
10045;SDS011;5063;50.878;4.742;2023-10-19T11:43:48;7.97;;;2.27;;
10045;SDS011;5063;50.878;4.742;2023-10-19T11:46:14;7.17;;;2.37;;
10045;SDS011;5063;50.878;4.742;2023-10-19T11:48:41;4.80;;;2.30;;
10045;SDS011;5063;50.878;4.742;2023-10-19T11:51:10;7.10;;;2.43;;
10045;SDS011;5063;50.878;4.742;2023-10-19T11:53:41;8.07;;;2.23;;
10045;SDS011;5063;50.878;4.742;2023-10-19T11:56:08;8.43;;;2.03;;
10045;SDS011;5063;50.878;4.742;2023-10-19T11:58:36;8.07;;;2.30;;
10045;SDS011;5063;50.878;4.742;2023-10-19T12:01:05;5.73;;;1.77;;
10045;SDS011;5063;50.878;4.742;2023-10-19T12:03:36;8.10;;;2.40;;
10045;SDS011;5063;50.878;4.742;2023-10-19T12:06:06;7.20;;;2.00;;
10045;SDS011;5063;50.878;4.742;2023-10-19T12:08:33;5.77;;;1.90;;
10045;SDS011;5063;50.878;4.742;2023-10-19T12:10:59;4.37;;;1.90;;
10045;SDS011;5063;50.878;4.742;2023-10-19T12:13:27;6.57;;;1.90;;
10045;SDS011;5063;50.878;4.742;2023-10-19T12:15:53;6.13;;;2.00;;
10045;SDS011;5063;50.878;4.742;2023-10-19T12:18:23;5.90;;;2.07;;
10045;SDS011;5063;50.878;4.742;2023-10-19T12:20:53;7.33;;;2.27;;
10045;SDS011;5063;50.878;4.742;2023-10-19T12:23:25;5.37;;;2.17;;
10045;SDS011;5063;50.878;4.742;2023-10-19T12:25:51;5.20;;;2.20;;
10045;SDS011;5063;50.878;4.742;2023-10-19T12:28:17;6.90;;;1.93;;
10045;SDS011;5063;50.878;4.742;2023-10-19T12:30:46;6.77;;;1.83;;
10045;SDS011;5063;50.878;4.742;2023-10-19T12:33:12;4.70;;;2.00;;
10045;SDS011;5063;50.878;4.742;2023-10-19T12:35:38;6.53;;;2.13;;
10045;SDS011;5063;50.878;4.742;2023-10-19T12:38:18;7.90;;;2.10;;
10045;SDS011;5063;50.878;4.742;2023-10-19T12:40:48;3.37;;;1.70;;
10045;SDS011;5063;50.878;4.742;2023-10-19T12:43:15;4.80;;;1.93;;
10045;SDS011;5063;50.878;4.742;2023-10-19T12:45:44;3.07;;;1.60;;
10045;SDS011;5063;50.878;4.742;2023-10-19T12:48:15;2.63;;;1.50;;
10045;SDS011;5063;50.878;4.742;2023-10-19T12:50:41;5.10;;;1.60;;
10045;SDS011;5063;50.878;4.742;2023-10-19T12:53:07;2.80;;;1.80;;
10045;SDS011;5063;50.878;4.742;2023-10-19T12:55:34;3.63;;;1.77;;
10045;SDS011;5063;50.878;4.742;2023-10-19T12:58:02;4.40;;;1.87;;
10045;SDS011;5063;50.878;4.742;2023-10-19T13:00:37;5.13;;;1.67;;
10045;SDS011;5063;50.878;4.742;2023-10-19T13:03:07;2.83;;;1.40;;
10045;SDS011;5063;50.878;4.742;2023-10-19T13:05:36;5.87;;;1.73;;
10045;SDS011;5063;50.878;4.742;2023-10-19T13:08:10;3.77;;;1.40;;
10045;SDS011;5063;50.878;4.742;2023-10-19T13:10:43;3.83;;;1.57;;
10045;SDS011;5063;50.878;4.742;2023-10-19T13:13:10;3.77;;;1.30;;
10045;SDS011;5063;50.878;4.742;2023-10-19T13:15:37;3.33;;;1.38;;
10045;SDS011;5063;50.878;4.742;2023-10-19T13:18:04;2.08;;;1.35;;
10045;SDS011;5063;50.878;4.742;2023-10-19T13:20:35;1.70;;;1.13;;
10045;SDS011;5063;50.878;4.742;2023-10-19T13:23:03;2.83;;;1.20;;
10045;SDS011;5063;50.878;4.742;2023-10-19T13:25:30;2.88;;;0.95;;
10045;SDS011;5063;50.878;4.742;2023-10-19T13:28:12;3.55;;;1.23;;
10045;SDS011;5063;50.878;4.742;2023-10-19T13:30:46;1.80;;;1.20;;
10045;SDS011;5063;50.878;4.742;2023-10-19T13:33:13;2.28;;;1.17;;
10045;SDS011;5063;50.878;4.742;2023-10-19T13:35:40;1.93;;;1.10;;
10045;SDS011;5063;50.878;4.742;2023-10-19T13:38:07;3.85;;;1.23;;
10045;SDS011;5063;50.878;4.742;2023-10-19T13:40:37;3.00;;;1.40;;
10045;SDS011;5063;50.878;4.742;2023-10-19T13:43:04;2.57;;;1.33;;
10045;SDS011;5063;50.878;4.742;2023-10-19T13:45:35;2.70;;;1.20;;
10045;SDS011;5063;50.878;4.742;2023-10-19T13:48:05;2.33;;;1.00;;
10045;SDS011;5063;50.878;4.742;2023-10-19T13:50:32;1.65;;;1.10;;
10045;SDS011;5063;50.878;4.742;2023-10-19T13:52:59;1.90;;;0.95;;
10045;SDS011;5063;50.878;4.742;2023-10-19T13:55:26;2.53;;;1.42;;
10045;SDS011;5063;50.878;4.742;2023-10-19T13:57:53;2.33;;;0.90;;
10045;SDS011;5063;50.878;4.742;2023-10-19T14:00:20;2.63;;;0.88;;
10045;SDS011;5063;50.878;4.742;2023-10-19T14:03:08;2.47;;;1.08;;
10045;SDS011;5063;50.878;4.742;2023-10-19T14:05:39;1.55;;;0.95;;
10045;SDS011;5063;50.878;4.742;2023-10-19T14:08:13;1.58;;;1.15;;
10045;SDS011;5063;50.878;4.742;2023-10-19T14:10:39;2.70;;;1.25;;
10045;SDS011;5063;50.878;4.742;2023-10-19T14:13:06;2.40;;;0.98;;
10045;SDS011;5063;50.878;4.742;2023-10-19T14:15:33;2.03;;;0.98;;
10045;SDS011;5063;50.878;4.742;2023-10-19T14:17:59;2.80;;;1.00;;
10045;SDS011;5063;50.878;4.742;2023-10-19T14:20:25;3.03;;;1.27;;
10045;SDS011;5063;50.878;4.742;2023-10-19T14:22:54;1.00;;;1.00;;
10045;SDS011;5063;50.878;4.742;2023-10-19T14:25:20;3.05;;;1.40;;
10045;SDS011;5063;50.878;4.742;2023-10-19T14:27:48;0.90;;;0.90;;
10045;SDS011;5063;50.878;4.742;2023-10-19T14:30:16;3.00;;;1.00;;
10045;SDS011;5063;50.878;4.742;2023-10-19T14:32:44;1.40;;;1.00;;
10045;SDS011;5063;50.878;4.742;2023-10-19T14:35:12;2.55;;;1.13;;
10045;SDS011;5063;50.878;4.742;2023-10-19T14:37:43;1.90;;;0.90;;
10045;SDS011;5063;50.878;4.742;2023-10-19T14:40:14;1.15;;;0.95;;
10045;SDS011;5063;50.878;4.742;2023-10-19T14:42:48;1.15;;;1.05;;
10045;SDS011;5063;50.878;4.742;2023-10-19T14:45:19;1.85;;;1.00;;
10045;SDS011;5063;50.878;4.742;2023-10-19T14:47:48;1.55;;;0.90;;
10045;SDS011;5063;50.878;4.742;2023-10-19T14:50:16;1.35;;;0.88;;
10045;SDS011;5063;50.878;4.742;2023-10-19T14:52:44;1.13;;;0.90;;
10045;SDS011;5063;50.878;4.742;2023-10-19T14:55:12;1.42;;;1.02;;
10045;SDS011;5063;50.878;4.742;2023-10-19T14:57:40;0.82;;;0.82;;
10045;SDS011;5063;50.878;4.742;2023-10-19T15:00:07;1.92;;;1.10;;
10045;SDS011;5063;50.878;4.742;2023-10-19T15:02:46;1.90;;;1.10;;
10045;SDS011;5063;50.878;4.742;2023-10-19T15:05:12;1.00;;;0.83;;
10045;SDS011;5063;50.878;4.742;2023-10-19T15:07:48;4.93;;;1.10;;
10045;SDS011;5063;50.878;4.742;2023-10-19T15:10:18;1.08;;;0.98;;
10045;SDS011;5063;50.878;4.742;2023-10-19T15:12:45;1.50;;;0.90;;
10045;SDS011;5063;50.878;4.742;2023-10-19T15:15:11;1.83;;;0.90;;
10045;SDS011;5063;50.878;4.742;2023-10-19T15:17:42;1.33;;;0.98;;
10045;SDS011;5063;50.878;4.742;2023-10-19T15:20:09;2.67;;;1.00;;
10045;SDS011;5063;50.878;4.742;2023-10-19T15:22:40;0.80;;;0.80;;
10045;SDS011;5063;50.878;4.742;2023-10-19T15:25:10;3.00;;;1.10;;
10045;SDS011;5063;50.878;4.742;2023-10-19T15:27:38;3.45;;;1.15;;
10045;SDS011;5063;50.878;4.742;2023-10-19T15:30:08;2.25;;;0.90;;
10045;SDS011;5063;50.878;4.742;2023-10-19T15:32:36;1.65;;;0.98;;
10045;SDS011;5063;50.878;4.742;2023-10-19T15:35:03;1.88;;;1.10;;
10045;SDS011;5063;50.878;4.742;2023-10-19T15:37:29;1.37;;;1.00;;
10045;SDS011;5063;50.878;4.742;2023-10-19T15:39:55;2.50;;;0.93;;
10045;SDS011;5063;50.878;4.742;2023-10-19T15:42:21;1.42;;;1.20;;
10045;SDS011;5063;50.878;4.742;2023-10-19T15:44:47;0.77;;;0.77;;
10045;SDS011;5063;50.878;4.742;2023-10-19T15:47:14;1.02;;;0.80;;